sensor_id;sensor_type;location;lat;lon;timestamp;P1;durP1;ratioP1;P2;durP2;ratioP2
77262;SDS011;66373;52.334;4.806;2023-01-15T00:01:52;18.38;;;9.25;;
77262;SDS011;66373;52.334;4.806;2023-01-15T00:04:20;17.90;;;10.25;;
77262;SDS011;66373;52.334;4.806;2023-01-15T00:06:47;16.98;;;9.82;;
77262;SDS011;66373;52.334;4.806;2023-01-15T00:09:15;15.95;;;8.88;;
77262;SDS011;66373;52.334;4.806;2023-01-15T00:11:43;19.10;;;8.57;;
77262;SDS011;66373;52.334;4.806;2023-01-15T00:14:10;17.35;;;8.95;;
77262;SDS011;66373;52.334;4.806;2023-01-15T00:16:40;12.07;;;7.38;;
77262;SDS011;66373;52.334;4.806;2023-01-15T00:19:11;18.08;;;9.23;;
77262;SDS011;66373;52.334;4.806;2023-01-15T00:24:53;13.80;;;7.18;;
77262;SDS011;66373;52.334;4.806;2023-01-15T00:27:38;18.20;;;7.30;;
77262;SDS011;66373;52.334;4.806;2023-01-15T00:30:08;15.02;;;8.05;;
77262;SDS011;66373;52.334;4.806;2023-01-15T00:32:38;15.15;;;7.80;;
77262;SDS011;66373;52.334;4.806;2023-01-15T00:35:09;14.63;;;7.30;;
77262;SDS011;66373;52.334;4.806;2023-01-15T00:37:38;13.38;;;7.38;;
77262;SDS011;66373;52.334;4.806;2023-01-15T00:40:06;12.45;;;6.95;;
77262;SDS011;66373;52.334;4.806;2023-01-15T00:42:34;12.13;;;6.85;;
77262;SDS011;66373;52.334;4.806;2023-01-15T00:45:02;13.68;;;7.05;;
77262;SDS011;66373;52.334;4.806;2023-01-15T00:47:34;10.38;;;6.10;;
77262;SDS011;66373;52.334;4.806;2023-01-15T00:50:03;12.73;;;6.28;;
77262;SDS011;66373;52.334;4.806;2023-01-15T00:52:33;9.88;;;5.20;;
77262;SDS011;66373;52.334;4.806;2023-01-15T00:55:01;10.48;;;6.00;;
77262;SDS011;66373;52.334;4.806;2023-01-15T00:57:29;9.63;;;6.15;;
77262;SDS011;66373;52.334;4.806;2023-01-15T00:59:57;10.05;;;5.97;;
77262;SDS011;66373;52.334;4.806;2023-01-15T01:02:24;9.40;;;5.47;;
77262;SDS011;66373;52.334;4.806;2023-01-15T01:04:52;8.50;;;5.18;;
77262;SDS011;66373;52.334;4.806;2023-01-15T01:07:19;8.63;;;5.07;;
77262;SDS011;66373;52.334;4.806;2023-01-15T01:09:48;10.50;;;5.28;;
77262;SDS011;66373;52.334;4.806;2023-01-15T01:12:17;8.15;;;4.85;;
77262;SDS011;66373;52.334;4.806;2023-01-15T01:14:48;6.88;;;4.80;;
77262;SDS011;66373;52.334;4.806;2023-01-15T01:17:15;8.63;;;5.15;;
77262;SDS011;66373;52.334;4.806;2023-01-15T01:19:43;8.20;;;4.88;;
77262;SDS011;66373;52.334;4.806;2023-01-15T01:22:10;9.07;;;4.95;;
77262;SDS011;66373;52.334;4.806;2023-01-15T01:24:38;8.52;;;5.13;;
77262;SDS011;66373;52.334;4.806;2023-01-15T01:27:07;6.70;;;4.20;;
77262;SDS011;66373;52.334;4.806;2023-01-15T01:29:35;8.85;;;4.47;;
77262;SDS011;66373;52.334;4.806;2023-01-15T01:32:02;8.43;;;4.47;;
77262;SDS011;66373;52.334;4.806;2023-01-15T01:34:30;8.20;;;4.60;;
77262;SDS011;66373;52.334;4.806;2023-01-15T01:36:58;6.32;;;3.95;;
77262;SDS011;66373;52.334;4.806;2023-01-15T01:39:25;5.65;;;3.72;;
77262;SDS011;66373;52.334;4.806;2023-01-15T01:41:53;10.15;;;4.70;;
77262;SDS011;66373;52.334;4.806;2023-01-15T01:47:30;6.03;;;3.50;;
77262;SDS011;66373;52.334;4.806;2023-01-15T01:50:01;7.65;;;4.03;;
77262;SDS011;66373;52.334;4.806;2023-01-15T01:52:35;7.65;;;3.92;;
77262;SDS011;66373;52.334;4.806;2023-01-15T01:55:07;6.22;;;3.50;;
77262;SDS011;66373;52.334;4.806;2023-01-15T01:57:36;7.55;;;3.30;;
77262;SDS011;66373;52.334;4.806;2023-01-15T02:00:07;8.23;;;4.10;;
77262;SDS011;66373;52.334;4.806;2023-01-15T02:02:40;5.50;;;3.40;;
77262;SDS011;66373;52.334;4.806;2023-01-15T02:05:10;7.15;;;3.80;;
77262;SDS011;66373;52.334;4.806;2023-01-15T02:07:42;5.32;;;2.88;;
77262;SDS011;66373;52.334;4.806;2023-01-15T02:10:12;7.30;;;3.28;;
77262;SDS011;66373;52.334;4.806;2023-01-15T02:12:41;5.55;;;3.33;;
77262;SDS011;66373;52.334;4.806;2023-01-15T02:15:16;6.90;;;3.28;;
77262;SDS011;66373;52.334;4.806;2023-01-15T02:17:52;5.32;;;3.25;;
77262;SDS011;66373;52.334;4.806;2023-01-15T02:20:24;7.55;;;3.30;;
77262;SDS011;66373;52.334;4.806;2023-01-15T02:23:01;6.75;;;3.20;;
77262;SDS011;66373;52.334;4.806;2023-01-15T02:25:57;8.45;;;3.00;;
77262;SDS011;66373;52.334;4.806;2023-01-15T02:28:33;8.75;;;3.80;;
77262;SDS011;66373;52.334;4.806;2023-01-15T02:31:07;5.20;;;2.78;;
77262;SDS011;66373;52.334;4.806;2023-01-15T02:33:38;5.32;;;3.22;;
77262;SDS011;66373;52.334;4.806;2023-01-15T02:36:10;6.13;;;2.97;;
77262;SDS011;66373;52.334;4.806;2023-01-15T02:38:42;6.60;;;3.10;;
77262;SDS011;66373;52.334;4.806;2023-01-15T02:41:17;5.05;;;2.88;;
77262;SDS011;66373;52.334;4.806;2023-01-15T02:43:50;7.00;;;3.17;;
77262;SDS011;66373;52.334;4.806;2023-01-15T02:46:25;6.70;;;3.25;;
77262;SDS011;66373;52.334;4.806;2023-01-15T02:48:55;5.65;;;2.70;;
77262;SDS011;66373;52.334;4.806;2023-01-15T02:51:30;4.57;;;2.22;;
77262;SDS011;66373;52.334;4.806;2023-01-15T02:54:05;4.32;;;2.53;;
77262;SDS011;66373;52.334;4.806;2023-01-15T02:56:38;4.68;;;2.58;;
77262;SDS011;66373;52.334;4.806;2023-01-15T02:59:10;5.65;;;2.60;;
77262;SDS011;66373;52.334;4.806;2023-01-15T03:01:44;5.13;;;2.55;;
77262;SDS011;66373;52.334;4.806;2023-01-15T03:04:17;4.00;;;2.38;;
77262;SDS011;66373;52.334;4.806;2023-01-15T03:06:51;8.25;;;3.05;;
77262;SDS011;66373;52.334;4.806;2023-01-15T03:09:25;4.45;;;2.70;;
77262;SDS011;66373;52.334;4.806;2023-01-15T03:11:57;6.82;;;2.70;;
77262;SDS011;66373;52.334;4.806;2023-01-15T03:14:39;9.45;;;2.80;;
77262;SDS011;66373;52.334;4.806;2023-01-15T03:17:13;5.25;;;2.63;;
77262;SDS011;66373;52.334;4.806;2023-01-15T03:19:44;6.05;;;2.58;;
77262;SDS011;66373;52.334;4.806;2023-01-15T03:22:19;5.03;;;2.20;;
77262;SDS011;66373;52.334;4.806;2023-01-15T03:24:52;6.70;;;2.92;;
77262;SDS011;66373;52.334;4.806;2023-01-15T03:27:23;6.03;;;2.70;;
77262;SDS011;66373;52.334;4.806;2023-01-15T03:29:57;4.63;;;2.38;;
77262;SDS011;66373;52.334;4.806;2023-01-15T03:32:28;5.85;;;2.40;;
77262;SDS011;66373;52.334;4.806;2023-01-15T03:34:57;3.75;;;2.38;;
77262;SDS011;66373;52.334;4.806;2023-01-15T03:37:26;5.38;;;2.58;;
77262;SDS011;66373;52.334;4.806;2023-01-15T03:39:54;3.55;;;2.13;;
77262;SDS011;66373;52.334;4.806;2023-01-15T03:42:29;6.40;;;2.78;;
77262;SDS011;66373;52.334;4.806;2023-01-15T03:45:12;3.42;;;2.08;;
77262;SDS011;66373;52.334;4.806;2023-01-15T03:47:49;5.20;;;2.40;;
77262;SDS011;66373;52.334;4.806;2023-01-15T03:50:25;2.92;;;2.05;;
77262;SDS011;66373;52.334;4.806;2023-01-15T03:53:01;3.92;;;2.30;;
77262;SDS011;66373;52.334;4.806;2023-01-15T03:55:36;3.53;;;2.33;;
77262;SDS011;66373;52.334;4.806;2023-01-15T03:58:12;5.85;;;2.33;;
77262;SDS011;66373;52.334;4.806;2023-01-15T04:00:47;6.50;;;2.50;;
77262;SDS011;66373;52.334;4.806;2023-01-15T04:03:19;4.15;;;2.22;;
77262;SDS011;66373;52.334;4.806;2023-01-15T04:05:49;3.00;;;2.03;;
77262;SDS011;66373;52.334;4.806;2023-01-15T04:08:19;4.75;;;2.40;;
77262;SDS011;66373;52.334;4.806;2023-01-15T04:10:52;5.13;;;2.35;;
77262;SDS011;66373;52.334;4.806;2023-01-15T04:13:20;4.78;;;2.33;;
77262;SDS011;66373;52.334;4.806;2023-01-15T04:15:50;4.13;;;2.33;;
77262;SDS011;66373;52.334;4.806;2023-01-15T04:18:17;3.97;;;2.05;;
77262;SDS011;66373;52.334;4.806;2023-01-15T04:20:46;4.32;;;2.25;;
77262;SDS011;66373;52.334;4.806;2023-01-15T04:23:13;5.75;;;2.00;;
77262;SDS011;66373;52.334;4.806;2023-01-15T04:25:41;5.05;;;2.22;;
77262;SDS011;66373;52.334;4.806;2023-01-15T04:28:09;7.78;;;2.63;;
77262;SDS011;66373;52.334;4.806;2023-01-15T04:30:37;3.80;;;2.10;;
77262;SDS011;66373;52.334;4.806;2023-01-15T04:33:05;4.22;;;1.95;;
77262;SDS011;66373;52.334;4.806;2023-01-15T04:35:32;5.93;;;2.03;;
77262;SDS011;66373;52.334;4.806;2023-01-15T04:38:00;4.88;;;2.45;;
77262;SDS011;66373;52.334;4.806;2023-01-15T04:40:27;4.82;;;2.28;;
77262;SDS011;66373;52.334;4.806;2023-01-15T04:43:12;3.78;;;1.95;;
77262;SDS011;66373;52.334;4.806;2023-01-15T04:45:57;3.17;;;1.90;;
77262;SDS011;66373;52.334;4.806;2023-01-15T04:48:26;3.95;;;2.30;;
77262;SDS011;66373;52.334;4.806;2023-01-15T04:50:53;3.53;;;2.03;;
77262;SDS011;66373;52.334;4.806;2023-01-15T04:53:20;3.35;;;1.90;;
77262;SDS011;66373;52.334;4.806;2023-01-15T04:55:47;3.75;;;2.17;;
77262;SDS011;66373;52.334;4.806;2023-01-15T04:58:14;3.55;;;1.92;;
77262;SDS011;66373;52.334;4.806;2023-01-15T05:00:40;5.65;;;2.05;;
77262;SDS011;66373;52.334;4.806;2023-01-15T05:03:07;3.22;;;1.85;;
77262;SDS011;66373;52.334;4.806;2023-01-15T05:05:35;3.63;;;2.00;;
77262;SDS011;66373;52.334;4.806;2023-01-15T05:08:02;3.45;;;1.98;;
77262;SDS011;66373;52.334;4.806;2023-01-15T05:10:30;4.88;;;2.10;;
77262;SDS011;66373;52.334;4.806;2023-01-15T05:12:56;4.55;;;2.00;;
77262;SDS011;66373;52.334;4.806;2023-01-15T05:15:23;4.90;;;2.03;;
77262;SDS011;66373;52.334;4.806;2023-01-15T05:17:50;2.92;;;1.55;;
77262;SDS011;66373;52.334;4.806;2023-01-15T05:20:17;4.32;;;2.28;;
77262;SDS011;66373;52.334;4.806;2023-01-15T05:22:45;5.05;;;2.30;;
77262;SDS011;66373;52.334;4.806;2023-01-15T05:25:12;3.90;;;2.10;;
77262;SDS011;66373;52.334;4.806;2023-01-15T05:27:39;3.55;;;1.75;;
77262;SDS011;66373;52.334;4.806;2023-01-15T05:30:08;4.47;;;1.95;;
77262;SDS011;66373;52.334;4.806;2023-01-15T05:32:36;4.80;;;1.85;;
77262;SDS011;66373;52.334;4.806;2023-01-15T05:35:03;6.70;;;1.73;;
77262;SDS011;66373;52.334;4.806;2023-01-15T05:37:30;4.47;;;1.70;;
77262;SDS011;66373;52.334;4.806;2023-01-15T05:39:59;3.45;;;1.98;;
77262;SDS011;66373;52.334;4.806;2023-01-15T05:42:26;5.30;;;2.20;;
77262;SDS011;66373;52.334;4.806;2023-01-15T05:44:53;3.75;;;1.90;;
77262;SDS011;66373;52.334;4.806;2023-01-15T05:47:20;4.22;;;2.00;;
77262;SDS011;66373;52.334;4.806;2023-01-15T05:49:47;4.43;;;2.20;;
77262;SDS011;66373;52.334;4.806;2023-01-15T05:52:14;8.02;;;2.00;;
77262;SDS011;66373;52.334;4.806;2023-01-15T05:54:41;4.75;;;1.98;;
77262;SDS011;66373;52.334;4.806;2023-01-15T05:57:10;4.18;;;2.35;;
77262;SDS011;66373;52.334;4.806;2023-01-15T05:59:38;4.97;;;1.92;;
77262;SDS011;66373;52.334;4.806;2023-01-15T06:02:05;3.55;;;1.83;;
77262;SDS011;66373;52.334;4.806;2023-01-15T06:04:32;4.40;;;1.77;;
77262;SDS011;66373;52.334;4.806;2023-01-15T06:06:59;4.10;;;1.92;;
77262;SDS011;66373;52.334;4.806;2023-01-15T06:09:26;7.78;;;2.35;;
77262;SDS011;66373;52.334;4.806;2023-01-15T06:11:53;3.83;;;1.95;;
77262;SDS011;66373;52.334;4.806;2023-01-15T06:14:22;6.38;;;2.28;;
77262;SDS011;66373;52.334;4.806;2023-01-15T06:16:52;5.45;;;2.05;;
77262;SDS011;66373;52.334;4.806;2023-01-15T06:19:28;9.05;;;2.00;;
77262;SDS011;66373;52.334;4.806;2023-01-15T06:21:58;4.53;;;1.75;;
77262;SDS011;66373;52.334;4.806;2023-01-15T06:24:26;4.55;;;2.20;;
77262;SDS011;66373;52.334;4.806;2023-01-15T06:26:53;3.72;;;1.90;;
77262;SDS011;66373;52.334;4.806;2023-01-15T06:29:20;5.50;;;1.90;;
77262;SDS011;66373;52.334;4.806;2023-01-15T06:31:49;4.25;;;1.80;;
77262;SDS011;66373;52.334;4.806;2023-01-15T06:34:24;5.85;;;2.03;;
77262;SDS011;66373;52.334;4.806;2023-01-15T06:36:54;5.15;;;2.03;;
77262;SDS011;66373;52.334;4.806;2023-01-15T06:39:21;5.53;;;2.05;;
77262;SDS011;66373;52.334;4.806;2023-01-15T06:41:49;3.67;;;1.95;;
77262;SDS011;66373;52.334;4.806;2023-01-15T06:44:34;5.70;;;1.95;;
77262;SDS011;66373;52.334;4.806;2023-01-15T06:47:22;3.70;;;2.15;;
77262;SDS011;66373;52.334;4.806;2023-01-15T06:49:50;5.03;;;2.03;;
77262;SDS011;66373;52.334;4.806;2023-01-15T06:52:25;7.53;;;1.90;;
77262;SDS011;66373;52.334;4.806;2023-01-15T06:54:55;3.78;;;1.90;;
77262;SDS011;66373;52.334;4.806;2023-01-15T06:57:22;2.80;;;1.60;;
77262;SDS011;66373;52.334;4.806;2023-01-15T06:59:50;5.60;;;1.83;;
77262;SDS011;66373;52.334;4.806;2023-01-15T07:02:23;4.90;;;1.80;;
77262;SDS011;66373;52.334;4.806;2023-01-15T07:04:51;4.45;;;1.67;;
77262;SDS011;66373;52.334;4.806;2023-01-15T07:07:19;4.05;;;1.92;;
77262;SDS011;66373;52.334;4.806;2023-01-15T07:09:46;7.00;;;1.95;;
77262;SDS011;66373;52.334;4.806;2023-01-15T07:12:13;3.60;;;1.77;;
77262;SDS011;66373;52.334;4.806;2023-01-15T07:14:41;4.30;;;1.85;;
77262;SDS011;66373;52.334;4.806;2023-01-15T07:17:11;6.45;;;2.38;;
77262;SDS011;66373;52.334;4.806;2023-01-15T07:19:40;6.18;;;1.95;;
77262;SDS011;66373;52.334;4.806;2023-01-15T07:22:09;6.20;;;2.75;;
77262;SDS011;66373;52.334;4.806;2023-01-15T07:24:46;5.90;;;2.30;;
77262;SDS011;66373;52.334;4.806;2023-01-15T07:27:13;6.38;;;2.35;;
77262;SDS011;66373;52.334;4.806;2023-01-15T07:29:40;2.78;;;1.90;;
77262;SDS011;66373;52.334;4.806;2023-01-15T07:32:07;8.20;;;2.50;;
77262;SDS011;66373;52.334;4.806;2023-01-15T07:34:36;3.60;;;2.63;;
77262;SDS011;66373;52.334;4.806;2023-01-15T07:37:04;5.15;;;2.95;;
77262;SDS011;66373;52.334;4.806;2023-01-15T07:39:31;11.00;;;3.15;;
77262;SDS011;66373;52.334;4.806;2023-01-15T07:41:58;7.38;;;3.85;;
77262;SDS011;66373;52.334;4.806;2023-01-15T07:44:43;8.13;;;3.97;;
77262;SDS011;66373;52.334;4.806;2023-01-15T07:47:27;7.63;;;4.22;;
77262;SDS011;66373;52.334;4.806;2023-01-15T07:50:22;5.72;;;3.63;;
77262;SDS011;66373;52.334;4.806;2023-01-15T07:52:51;7.57;;;3.83;;
77262;SDS011;66373;52.334;4.806;2023-01-15T07:55:17;8.77;;;3.90;;
77262;SDS011;66373;52.334;4.806;2023-01-15T07:57:44;8.00;;;4.13;;
77262;SDS011;66373;52.334;4.806;2023-01-15T08:00:12;6.32;;;3.85;;
77262;SDS011;66373;52.334;4.806;2023-01-15T08:02:41;7.18;;;4.28;;
77262;SDS011;66373;52.334;4.806;2023-01-15T08:05:10;11.18;;;4.72;;
77262;SDS011;66373;52.334;4.806;2023-01-15T08:07:37;8.00;;;4.22;;
77262;SDS011;66373;52.334;4.806;2023-01-15T08:24:37;11.75;;;5.07;;
77262;SDS011;66373;52.334;4.806;2023-01-15T08:27:05;9.23;;;5.88;;
77262;SDS011;66373;52.334;4.806;2023-01-15T08:29:31;8.73;;;5.50;;
77262;SDS011;66373;52.334;4.806;2023-01-15T08:31:58;9.93;;;6.05;;
77262;SDS011;66373;52.334;4.806;2023-01-15T08:34:25;10.68;;;6.43;;
77262;SDS011;66373;52.334;4.806;2023-01-15T08:36:52;10.63;;;7.15;;
77262;SDS011;66373;52.334;4.806;2023-01-15T08:41:52;7.25;;;5.78;;
77262;SDS011;66373;52.334;4.806;2023-01-15T08:44:19;11.60;;;6.43;;
77262;SDS011;66373;52.334;4.806;2023-01-15T08:46:48;8.63;;;5.85;;
77262;SDS011;66373;52.334;4.806;2023-01-15T08:49:15;10.88;;;6.30;;
77262;SDS011;66373;52.334;4.806;2023-01-15T08:51:43;9.18;;;6.10;;
77262;SDS011;66373;52.334;4.806;2023-01-15T08:54:14;13.45;;;7.05;;
77262;SDS011;66373;52.334;4.806;2023-01-15T08:56:41;9.65;;;6.72;;
77262;SDS011;66373;52.334;4.806;2023-01-15T08:59:10;10.65;;;5.55;;
77262;SDS011;66373;52.334;4.806;2023-01-15T09:01:37;9.63;;;6.68;;
77262;SDS011;66373;52.334;4.806;2023-01-15T09:04:05;10.15;;;7.00;;
77262;SDS011;66373;52.334;4.806;2023-01-15T09:06:32;9.77;;;6.05;;
77262;SDS011;66373;52.334;4.806;2023-01-15T09:08:59;9.48;;;6.63;;
77262;SDS011;66373;52.334;4.806;2023-01-15T09:11:26;10.15;;;6.15;;
77262;SDS011;66373;52.334;4.806;2023-01-15T09:13:54;10.93;;;6.72;;
77262;SDS011;66373;52.334;4.806;2023-01-15T09:16:22;10.07;;;6.65;;
77262;SDS011;66373;52.334;4.806;2023-01-15T09:18:50;11.20;;;6.93;;
77262;SDS011;66373;52.334;4.806;2023-01-15T09:21:17;9.38;;;6.18;;
77262;SDS011;66373;52.334;4.806;2023-01-15T09:23:44;8.20;;;5.60;;
77262;SDS011;66373;52.334;4.806;2023-01-15T09:26:24;10.32;;;6.38;;
77262;SDS011;66373;52.334;4.806;2023-01-15T09:28:53;10.35;;;6.30;;
77262;SDS011;66373;52.334;4.806;2023-01-15T09:31:22;16.27;;;6.45;;
77262;SDS011;66373;52.334;4.806;2023-01-15T09:33:50;8.23;;;5.45;;
77262;SDS011;66373;52.334;4.806;2023-01-15T09:36:16;10.27;;;5.60;;
77262;SDS011;66373;52.334;4.806;2023-01-15T09:38:45;11.15;;;6.18;;
77262;SDS011;66373;52.334;4.806;2023-01-15T09:41:12;8.75;;;6.10;;
77262;SDS011;66373;52.334;4.806;2023-01-15T09:43:56;8.30;;;5.57;;
77262;SDS011;66373;52.334;4.806;2023-01-15T09:46:36;10.93;;;5.65;;
77262;SDS011;66373;52.334;4.806;2023-01-15T09:49:13;8.98;;;5.03;;
77262;SDS011;66373;52.334;4.806;2023-01-15T09:51:55;9.60;;;5.60;;
77262;SDS011;66373;52.334;4.806;2023-01-15T09:54:34;10.88;;;5.65;;
77262;SDS011;66373;52.334;4.806;2023-01-15T09:57:09;8.52;;;6.20;;
77262;SDS011;66373;52.334;4.806;2023-01-15T09:59:38;10.63;;;6.05;;
77262;SDS011;66373;52.334;4.806;2023-01-15T10:02:15;11.05;;;5.82;;
77262;SDS011;66373;52.334;4.806;2023-01-15T10:04:50;8.40;;;5.53;;
77262;SDS011;66373;52.334;4.806;2023-01-15T10:07:22;8.63;;;5.43;;
77262;SDS011;66373;52.334;4.806;2023-01-15T10:09:55;9.10;;;5.38;;
77262;SDS011;66373;52.334;4.806;2023-01-15T10:12:27;9.98;;;5.15;;
77262;SDS011;66373;52.334;4.806;2023-01-15T10:18:02;9.88;;;5.22;;
77262;SDS011;66373;52.334;4.806;2023-01-15T10:20:38;13.27;;;5.50;;
77262;SDS011;66373;52.334;4.806;2023-01-15T10:23:24;15.48;;;5.50;;
77262;SDS011;66373;52.334;4.806;2023-01-15T10:26:00;14.93;;;5.85;;
77262;SDS011;66373;52.334;4.806;2023-01-15T10:28:31;9.85;;;5.30;;
77262;SDS011;66373;52.334;4.806;2023-01-15T10:31:14;8.38;;;5.47;;
77262;SDS011;66373;52.334;4.806;2023-01-15T10:33:51;14.23;;;5.20;;
77262;SDS011;66373;52.334;4.806;2023-01-15T10:36:31;9.82;;;5.60;;
77262;SDS011;66373;52.334;4.806;2023-01-15T10:39:03;8.23;;;5.18;;
77262;SDS011;66373;52.334;4.806;2023-01-15T10:41:42;8.45;;;4.85;;
77262;SDS011;66373;52.334;4.806;2023-01-15T10:46:50;5.93;;;4.25;;
77262;SDS011;66373;52.334;4.806;2023-01-15T10:49:25;7.50;;;4.88;;
77262;SDS011;66373;52.334;4.806;2023-01-15T10:51:55;8.02;;;4.72;;
77262;SDS011;66373;52.334;4.806;2023-01-15T10:54:24;9.02;;;4.55;;
77262;SDS011;66373;52.334;4.806;2023-01-15T10:56:58;5.20;;;4.15;;
77262;SDS011;66373;52.334;4.806;2023-01-15T10:59:35;7.13;;;4.43;;
77262;SDS011;66373;52.334;4.806;2023-01-15T11:02:19;8.00;;;5.15;;
77262;SDS011;66373;52.334;4.806;2023-01-15T11:04:52;7.55;;;4.03;;
77262;SDS011;66373;52.334;4.806;2023-01-15T11:07:20;7.75;;;4.18;;
77262;SDS011;66373;52.334;4.806;2023-01-15T11:09:51;7.13;;;4.03;;
77262;SDS011;66373;52.334;4.806;2023-01-15T11:12:20;6.18;;;4.00;;
77262;SDS011;66373;52.334;4.806;2023-01-15T11:15:14;6.93;;;4.00;;
77262;SDS011;66373;52.334;4.806;2023-01-15T11:18:00;8.93;;;3.90;;
77262;SDS011;66373;52.334;4.806;2023-01-15T11:20:47;8.18;;;3.83;;
77262;SDS011;66373;52.334;4.806;2023-01-15T11:23:16;9.23;;;3.65;;
77262;SDS011;66373;52.334;4.806;2023-01-15T11:25:49;7.15;;;3.55;;
77262;SDS011;66373;52.334;4.806;2023-01-15T11:28:28;8.57;;;4.00;;
77262;SDS011;66373;52.334;4.806;2023-01-15T11:30:59;8.40;;;3.63;;
77262;SDS011;66373;52.334;4.806;2023-01-15T11:33:27;7.28;;;3.70;;
77262;SDS011;66373;52.334;4.806;2023-01-15T11:35:58;9.13;;;3.60;;
77262;SDS011;66373;52.334;4.806;2023-01-15T11:38:27;6.72;;;3.60;;
77262;SDS011;66373;52.334;4.806;2023-01-15T11:40:55;7.30;;;4.00;;
77262;SDS011;66373;52.334;4.806;2023-01-15T11:43:25;10.27;;;3.88;;
77262;SDS011;66373;52.334;4.806;2023-01-15T11:46:24;4.88;;;3.55;;
77262;SDS011;66373;52.334;4.806;2023-01-15T11:49:13;9.93;;;4.43;;
77262;SDS011;66373;52.334;4.806;2023-01-15T11:52:01;6.60;;;3.28;;
77262;SDS011;66373;52.334;4.806;2023-01-15T11:54:31;6.90;;;3.65;;
77262;SDS011;66373;52.334;4.806;2023-01-15T11:57:03;6.57;;;3.70;;
77262;SDS011;66373;52.334;4.806;2023-01-15T11:59:31;4.50;;;3.22;;
77262;SDS011;66373;52.334;4.806;2023-01-15T12:01:59;5.38;;;2.88;;
77262;SDS011;66373;52.334;4.806;2023-01-15T12:04:32;7.32;;;3.88;;
77262;SDS011;66373;52.334;4.806;2023-01-15T12:07:04;4.15;;;3.17;;
77262;SDS011;66373;52.334;4.806;2023-01-15T12:09:44;5.93;;;2.92;;
77262;SDS011;66373;52.334;4.806;2023-01-15T12:12:30;8.07;;;3.60;;
77262;SDS011;66373;52.334;4.806;2023-01-15T12:15:12;7.57;;;3.20;;
77262;SDS011;66373;52.334;4.806;2023-01-15T12:21:01;13.68;;;3.33;;
77262;SDS011;66373;52.334;4.806;2023-01-15T12:23:40;10.52;;;3.20;;
77262;SDS011;66373;52.334;4.806;2023-01-15T12:26:26;6.32;;;3.25;;
77262;SDS011;66373;52.334;4.806;2023-01-15T12:29:01;6.47;;;3.22;;
77262;SDS011;66373;52.334;4.806;2023-01-15T12:31:33;8.35;;;3.42;;
77262;SDS011;66373;52.334;4.806;2023-01-15T12:34:05;7.20;;;3.55;;
77262;SDS011;66373;52.334;4.806;2023-01-15T12:36:42;8.55;;;3.00;;
77262;SDS011;66373;52.334;4.806;2023-01-15T12:39:15;7.47;;;2.95;;
77262;SDS011;66373;52.334;4.806;2023-01-15T12:41:46;8.48;;;3.25;;
77262;SDS011;66373;52.334;4.806;2023-01-15T12:44:44;4.95;;;3.03;;
77262;SDS011;66373;52.334;4.806;2023-01-15T12:47:30;4.65;;;3.15;;
77262;SDS011;66373;52.334;4.806;2023-01-15T12:50:03;6.25;;;2.60;;
77262;SDS011;66373;52.334;4.806;2023-01-15T12:52:48;4.55;;;2.65;;
77262;SDS011;66373;52.334;4.806;2023-01-15T12:55:21;3.78;;;2.65;;
77262;SDS011;66373;52.334;4.806;2023-01-15T12:57:54;9.98;;;5.07;;
77262;SDS011;66373;52.334;4.806;2023-01-15T13:00:26;12.82;;;6.43;;
77262;SDS011;66373;52.334;4.806;2023-01-15T13:02:59;8.98;;;4.68;;
77262;SDS011;66373;52.334;4.806;2023-01-15T13:05:36;10.32;;;4.57;;
77262;SDS011;66373;52.334;4.806;2023-01-15T13:08:09;12.32;;;5.45;;
77262;SDS011;66373;52.334;4.806;2023-01-15T13:10:42;11.07;;;4.43;;
77262;SDS011;66373;52.334;4.806;2023-01-15T13:13:13;8.68;;;4.43;;
77262;SDS011;66373;52.334;4.806;2023-01-15T13:15:45;12.73;;;4.47;;
77262;SDS011;66373;52.334;4.806;2023-01-15T13:18:35;10.50;;;4.20;;
77262;SDS011;66373;52.334;4.806;2023-01-15T13:21:13;7.13;;;3.90;;
77262;SDS011;66373;52.334;4.806;2023-01-15T13:27:02;10.63;;;4.43;;
77262;SDS011;66373;52.334;4.806;2023-01-15T13:29:45;10.30;;;4.32;;
77262;SDS011;66373;52.334;4.806;2023-01-15T13:32:26;8.15;;;4.10;;
77262;SDS011;66373;52.334;4.806;2023-01-15T13:34:55;9.32;;;4.28;;
77262;SDS011;66373;52.334;4.806;2023-01-15T13:39:55;7.95;;;3.90;;
77262;SDS011;66373;52.334;4.806;2023-01-15T13:42:28;13.07;;;4.10;;
77262;SDS011;66373;52.334;4.806;2023-01-15T13:44:57;6.72;;;3.63;;
77262;SDS011;66373;52.334;4.806;2023-01-15T13:47:29;6.95;;;3.40;;
77262;SDS011;66373;52.334;4.806;2023-01-15T13:49:59;11.77;;;4.25;;
77262;SDS011;66373;52.334;4.806;2023-01-15T13:52:31;11.63;;;4.03;;
77262;SDS011;66373;52.334;4.806;2023-01-15T13:55:08;10.18;;;4.22;;
77262;SDS011;66373;52.334;4.806;2023-01-15T13:57:39;10.65;;;3.40;;
77262;SDS011;66373;52.334;4.806;2023-01-15T14:00:24;9.07;;;3.60;;
77262;SDS011;66373;52.334;4.806;2023-01-15T14:02:54;6.93;;;3.90;;
77262;SDS011;66373;52.334;4.806;2023-01-15T14:05:27;11.43;;;3.58;;
77262;SDS011;66373;52.334;4.806;2023-01-15T14:07:56;7.75;;;3.40;;
77262;SDS011;66373;52.334;4.806;2023-01-15T14:10:32;9.88;;;3.50;;
77262;SDS011;66373;52.334;4.806;2023-01-15T14:13:25;9.13;;;3.70;;
77262;SDS011;66373;52.334;4.806;2023-01-15T14:16:10;7.88;;;3.50;;
77262;SDS011;66373;52.334;4.806;2023-01-15T14:18:51;9.43;;;4.07;;
77262;SDS011;66373;52.334;4.806;2023-01-15T14:21:37;7.32;;;3.63;;
77262;SDS011;66373;52.334;4.806;2023-01-15T14:24:18;8.45;;;4.00;;
77262;SDS011;66373;52.334;4.806;2023-01-15T14:27:03;7.68;;;4.00;;
77262;SDS011;66373;52.334;4.806;2023-01-15T14:29:44;11.77;;;3.83;;
77262;SDS011;66373;52.334;4.806;2023-01-15T14:34:57;9.57;;;3.53;;
77262;SDS011;66373;52.334;4.806;2023-01-15T14:37:26;9.55;;;4.22;;
77262;SDS011;66373;52.334;4.806;2023-01-15T14:39:58;7.40;;;3.85;;
77262;SDS011;66373;52.334;4.806;2023-01-15T14:42:29;7.30;;;3.47;;
77262;SDS011;66373;52.334;4.806;2023-01-15T14:45:20;12.10;;;4.35;;
77262;SDS011;66373;52.334;4.806;2023-01-15T14:47:52;9.23;;;3.95;;
77262;SDS011;66373;52.334;4.806;2023-01-15T14:50:22;10.73;;;4.03;;
77262;SDS011;66373;52.334;4.806;2023-01-15T14:52:58;9.05;;;4.60;;
77262;SDS011;66373;52.334;4.806;2023-01-15T14:55:45;9.68;;;4.90;;
77262;SDS011;66373;52.334;4.806;2023-01-15T15:00:48;10.98;;;4.40;;
77262;SDS011;66373;52.334;4.806;2023-01-15T15:03:20;9.77;;;4.03;;
77262;SDS011;66373;52.334;4.806;2023-01-15T15:05:54;11.38;;;4.50;;
77262;SDS011;66373;52.334;4.806;2023-01-15T15:08:22;10.82;;;4.15;;
77262;SDS011;66373;52.334;4.806;2023-01-15T15:10:54;10.85;;;4.70;;
77262;SDS011;66373;52.334;4.806;2023-01-15T15:13:26;12.60;;;4.18;;
77262;SDS011;66373;52.334;4.806;2023-01-15T15:16:00;10.25;;;4.57;;
77262;SDS011;66373;52.334;4.806;2023-01-15T15:18:34;11.02;;;4.65;;
77262;SDS011;66373;52.334;4.806;2023-01-15T15:21:06;10.52;;;4.78;;
77262;SDS011;66373;52.334;4.806;2023-01-15T15:23:41;8.55;;;4.45;;
77262;SDS011;66373;52.334;4.806;2023-01-15T15:26:19;9.27;;;4.65;;
77262;SDS011;66373;52.334;4.806;2023-01-15T15:28:54;11.38;;;4.95;;
77262;SDS011;66373;52.334;4.806;2023-01-15T15:31:24;12.75;;;4.55;;
77262;SDS011;66373;52.334;4.806;2023-01-15T15:33:52;10.77;;;4.43;;
77262;SDS011;66373;52.334;4.806;2023-01-15T15:36:21;8.05;;;4.13;;
77262;SDS011;66373;52.334;4.806;2023-01-15T15:38:52;8.80;;;4.32;;
77262;SDS011;66373;52.334;4.806;2023-01-15T15:41:20;11.38;;;4.35;;
77262;SDS011;66373;52.334;4.806;2023-01-15T15:44:04;7.32;;;4.40;;
77262;SDS011;66373;52.334;4.806;2023-01-15T15:46:59;11.60;;;4.40;;
77262;SDS011;66373;52.334;4.806;2023-01-15T15:50:00;8.52;;;4.72;;
77262;SDS011;66373;52.334;4.806;2023-01-15T15:52:27;10.43;;;4.55;;
77262;SDS011;66373;52.334;4.806;2023-01-15T15:54:59;12.30;;;4.40;;
77262;SDS011;66373;52.334;4.806;2023-01-15T15:57:30;10.07;;;4.80;;
77262;SDS011;66373;52.334;4.806;2023-01-15T16:00:00;13.25;;;4.13;;